sensor_id;sensor_type;location;lat;lon;timestamp;temperature;humidity
71801;HTU21D;59647;55.838;37.292;2023-11-21T00:00:20;-6.72;69.45
71801;HTU21D;59647;55.838;37.292;2023-11-21T00:02:46;-6.74;69.51
71801;HTU21D;59647;55.838;37.292;2023-11-21T00:05:14;-6.74;69.56
71801;HTU21D;59647;55.838;37.292;2023-11-21T00:07:41;-6.73;69.78
71801;HTU21D;59647;55.838;37.292;2023-11-21T00:10:09;-6.76;69.17
71801;HTU21D;59647;55.838;37.292;2023-11-21T00:12:37;-6.63;69.59
71801;HTU21D;59647;55.838;37.292;2023-11-21T00:15:04;-6.71;68.81
71801;HTU21D;59647;55.838;37.292;2023-11-21T00:17:31;-6.75;69.20
71801;HTU21D;59647;55.838;37.292;2023-11-21T00:19:57;-6.76;69.32
71801;HTU21D;59647;55.838;37.292;2023-11-21T00:22:23;-6.73;68.84
71801;HTU21D;59647;55.838;37.292;2023-11-21T00:24:49;-6.83;68.46
71801;HTU21D;59647;55.838;37.292;2023-11-21T00:27:15;-6.90;68.80
71801;HTU21D;59647;55.838;37.292;2023-11-21T00:29:41;-6.86;69.21
71801;HTU21D;59647;55.838;37.292;2023-11-21T00:32:09;-6.80;69.07
71801;HTU21D;59647;55.838;37.292;2023-11-21T00:34:37;-6.93;68.21
71801;HTU21D;59647;55.838;37.292;2023-11-21T00:37:03;-6.86;69.02
71801;HTU21D;59647;55.838;37.292;2023-11-21T00:39:29;-6.90;68.58
71801;HTU21D;59647;55.838;37.292;2023-11-21T00:41:54;-6.82;68.89
71801;HTU21D;59647;55.838;37.292;2023-11-21T00:44:20;-6.95;68.52
71801;HTU21D;59647;55.838;37.292;2023-11-21T00:46:46;-6.97;68.84
71801;HTU21D;59647;55.838;37.292;2023-11-21T00:49:12;-6.91;68.26
71801;HTU21D;59647;55.838;37.292;2023-11-21T00:51:38;-7.00;68.80
71801;HTU21D;59647;55.838;37.292;2023-11-21T00:54:05;-6.94;69.00
71801;HTU21D;59647;55.838;37.292;2023-11-21T00:56:32;-6.87;69.36
71801;HTU21D;59647;55.838;37.292;2023-11-21T00:58:59;-6.78;69.30
71801;HTU21D;59647;55.838;37.292;2023-11-21T01:01:25;-6.82;69.29
71801;HTU21D;59647;55.838;37.292;2023-11-21T01:03:52;-6.87;68.61
71801;HTU21D;59647;55.838;37.292;2023-11-21T01:06:19;-6.98;68.71
71801;HTU21D;59647;55.838;37.292;2023-11-21T01:08:45;-6.93;69.07
71801;HTU21D;59647;55.838;37.292;2023-11-21T01:11:11;-6.92;69.00
71801;HTU21D;59647;55.838;37.292;2023-11-21T01:13:42;-6.98;66.86
71801;HTU21D;59647;55.838;37.292;2023-11-21T01:16:11;-6.98;68.05
71801;HTU21D;59647;55.838;37.292;2023-11-21T01:18:39;-7.12;67.94
71801;HTU21D;59647;55.838;37.292;2023-11-21T01:21:10;-7.04;68.63
71801;HTU21D;59647;55.838;37.292;2023-11-21T01:23:36;-7.07;68.36
71801;HTU21D;59647;55.838;37.292;2023-11-21T01:26:06;-7.13;68.50
71801;HTU21D;59647;55.838;37.292;2023-11-21T01:28:36;-7.21;67.67
71801;HTU21D;59647;55.838;37.292;2023-11-21T01:31:02;-7.16;68.46
71801;HTU21D;59647;55.838;37.292;2023-11-21T01:33:28;-7.25;67.77
71801;HTU21D;59647;55.838;37.292;2023-11-21T01:35:54;-7.21;67.98
71801;HTU21D;59647;55.838;37.292;2023-11-21T01:38:21;-7.25;68.30
71801;HTU21D;59647;55.838;37.292;2023-11-21T01:40:48;-7.35;67.69
71801;HTU21D;59647;55.838;37.292;2023-11-21T01:43:14;-7.34;68.04
71801;HTU21D;59647;55.838;37.292;2023-11-21T01:45:40;-7.34;68.13
71801;HTU21D;59647;55.838;37.292;2023-11-21T01:48:09;-7.44;67.46
71801;HTU21D;59647;55.838;37.292;2023-11-21T01:50:36;-7.42;67.66
71801;HTU21D;59647;55.838;37.292;2023-11-21T01:53:02;-7.40;68.03
71801;HTU21D;59647;55.838;37.292;2023-11-21T01:55:29;-7.50;67.09
71801;HTU21D;59647;55.838;37.292;2023-11-21T01:57:56;-7.50;67.75
71801;HTU21D;59647;55.838;37.292;2023-11-21T02:00:26;-7.51;66.57
71801;HTU21D;59647;55.838;37.292;2023-11-21T02:02:55;-7.60;67.13
71801;HTU21D;59647;55.838;37.292;2023-11-21T02:05:34;-7.56;66.99
71801;HTU21D;59647;55.838;37.292;2023-11-21T02:08:03;-7.65;67.10
71801;HTU21D;59647;55.838;37.292;2023-11-21T02:10:30;-7.63;67.13
71801;HTU21D;59647;55.838;37.292;2023-11-21T02:12:58;-7.64;66.56
71801;HTU21D;59647;55.838;37.292;2023-11-21T02:15:31;-7.62;67.09
71801;HTU21D;59647;55.838;37.292;2023-11-21T02:17:57;-7.65;67.78
71801;HTU21D;59647;55.838;37.292;2023-11-21T02:20:24;-7.64;67.60
71801;HTU21D;59647;55.838;37.292;2023-11-21T02:22:52;-7.71;67.31
71801;HTU21D;59647;55.838;37.292;2023-11-21T02:27:51;-7.66;67.51
71801;HTU21D;59647;55.838;37.292;2023-11-21T02:30:17;-7.71;67.68
71801;HTU21D;59647;55.838;37.292;2023-11-21T02:32:44;-7.70;67.66
71801;HTU21D;59647;55.838;37.292;2023-11-21T02:35:12;-7.71;67.07
71801;HTU21D;59647;55.838;37.292;2023-11-21T02:37:39;-7.74;67.20
71801;HTU21D;59647;55.838;37.292;2023-11-21T02:40:10;-7.81;67.74
71801;HTU21D;59647;55.838;37.292;2023-11-21T02:42:40;-7.82;68.09
71801;HTU21D;59647;55.838;37.292;2023-11-21T02:45:10;-7.77;68.31
71801;HTU21D;59647;55.838;37.292;2023-11-21T02:47:38;-7.77;68.87
71801;HTU21D;59647;55.838;37.292;2023-11-21T02:50:05;-7.67;68.74
71801;HTU21D;59647;55.838;37.292;2023-11-21T02:52:34;-7.70;68.23
71801;HTU21D;59647;55.838;37.292;2023-11-21T02:55:09;-7.66;68.79
71801;HTU21D;59647;55.838;37.292;2023-11-21T02:57:38;-7.68;68.91
71801;HTU21D;59647;55.838;37.292;2023-11-21T03:00:08;-7.61;68.76
71801;HTU21D;59647;55.838;37.292;2023-11-21T03:02:42;-7.63;68.79
71801;HTU21D;59647;55.838;37.292;2023-11-21T03:05:37;-7.62;68.91
71801;HTU21D;59647;55.838;37.292;2023-11-21T03:08:04;-7.69;69.61
71801;HTU21D;59647;55.838;37.292;2023-11-21T03:10:30;-7.64;69.14
71801;HTU21D;59647;55.838;37.292;2023-11-21T03:12:56;-7.71;69.94
71801;HTU21D;59647;55.838;37.292;2023-11-21T03:15:23;-7.70;69.65
71801;HTU21D;59647;55.838;37.292;2023-11-21T03:17:49;-7.75;70.75
71801;HTU21D;59647;55.838;37.292;2023-11-21T03:20:15;-7.66;69.74
71801;HTU21D;59647;55.838;37.292;2023-11-21T03:22:42;-7.61;69.77
71801;HTU21D;59647;55.838;37.292;2023-11-21T03:25:15;-7.66;69.68
71801;HTU21D;59647;55.838;37.292;2023-11-21T03:27:49;-7.67;70.24
71801;HTU21D;59647;55.838;37.292;2023-11-21T03:30:17;-7.55;69.47
71801;HTU21D;59647;55.838;37.292;2023-11-21T03:32:43;-7.63;69.47
71801;HTU21D;59647;55.838;37.292;2023-11-21T03:35:09;-7.67;69.59
71801;HTU21D;59647;55.838;37.292;2023-11-21T03:37:36;-7.71;70.39
71801;HTU21D;59647;55.838;37.292;2023-11-21T03:40:04;-7.63;70.16
71801;HTU21D;59647;55.838;37.292;2023-11-21T03:42:30;-7.56;70.04
71801;HTU21D;59647;55.838;37.292;2023-11-21T03:44:57;-7.55;69.91
71801;HTU21D;59647;55.838;37.292;2023-11-21T03:47:24;-7.60;69.65
71801;HTU21D;59647;55.838;37.292;2023-11-21T03:49:50;-7.59;70.13
71801;HTU21D;59647;55.838;37.292;2023-11-21T03:52:16;-7.55;70.99
71801;HTU21D;59647;55.838;37.292;2023-11-21T03:54:45;-7.48;69.61
71801;HTU21D;59647;55.838;37.292;2023-11-21T03:57:12;-7.48;69.29
71801;HTU21D;59647;55.838;37.292;2023-11-21T03:59:42;-7.56;69.40
71801;HTU21D;59647;55.838;37.292;2023-11-21T04:02:08;-7.55;69.25
71801;HTU21D;59647;55.838;37.292;2023-11-21T04:04:35;-7.62;69.32
71801;HTU21D;59647;55.838;37.292;2023-11-21T04:07:01;-7.50;68.81
71801;HTU21D;59647;55.838;37.292;2023-11-21T04:09:28;-7.62;70.47
71801;HTU21D;59647;55.838;37.292;2023-11-21T04:11:54;-7.48;69.80
71801;HTU21D;59647;55.838;37.292;2023-11-21T04:14:21;-7.55;69.42
71801;HTU21D;59647;55.838;37.292;2023-11-21T04:16:50;-7.50;69.37
71801;HTU21D;59647;55.838;37.292;2023-11-21T04:19:15;-7.50;69.31
71801;HTU21D;59647;55.838;37.292;2023-11-21T04:21:46;-7.48;69.60
71801;HTU21D;59647;55.838;37.292;2023-11-21T04:24:21;-7.51;69.29
71801;HTU21D;59647;55.838;37.292;2023-11-21T04:26:47;-7.44;69.76
71801;HTU21D;59647;55.838;37.292;2023-11-21T04:29:12;-7.41;69.66
71801;HTU21D;59647;55.838;37.292;2023-11-21T04:31:38;-7.41;69.09
71801;HTU21D;59647;55.838;37.292;2023-11-21T04:34:04;-7.30;69.65
71801;HTU21D;59647;55.838;37.292;2023-11-21T04:36:30;-7.36;69.22
71801;HTU21D;59647;55.838;37.292;2023-11-21T04:38:57;-7.34;69.39
71801;HTU21D;59647;55.838;37.292;2023-11-21T04:41:26;-7.38;68.93
71801;HTU21D;59647;55.838;37.292;2023-11-21T04:43:52;-7.34;69.04
71801;HTU21D;59647;55.838;37.292;2023-11-21T04:46:20;-7.39;69.39
71801;HTU21D;59647;55.838;37.292;2023-11-21T04:48:47;-7.35;69.39
71801;HTU21D;59647;55.838;37.292;2023-11-21T04:51:13;-7.40;70.07
71801;HTU21D;59647;55.838;37.292;2023-11-21T04:53:39;-7.29;70.76
71801;HTU21D;59647;55.838;37.292;2023-11-21T04:56:05;-7.18;70.74
71801;HTU21D;59647;55.838;37.292;2023-11-21T04:58:31;-7.10;69.94
71801;HTU21D;59647;55.838;37.292;2023-11-21T05:00:58;-7.11;68.86
71801;HTU21D;59647;55.838;37.292;2023-11-21T05:03:25;-7.15;69.41
71801;HTU21D;59647;55.838;37.292;2023-11-21T05:05:51;-7.09;69.52
71801;HTU21D;59647;55.838;37.292;2023-11-21T05:08:17;-7.23;69.27
71801;HTU21D;59647;55.838;37.292;2023-11-21T05:10:46;-7.10;69.53
71801;HTU21D;59647;55.838;37.292;2023-11-21T05:13:12;-7.10;69.57
71801;HTU21D;59647;55.838;37.292;2023-11-21T05:15:38;-7.12;69.48
71801;HTU21D;59647;55.838;37.292;2023-11-21T05:18:05;-7.02;70.40
71801;HTU21D;59647;55.838;37.292;2023-11-21T05:20:31;-6.98;69.44
71801;HTU21D;59647;55.838;37.292;2023-11-21T05:22:59;-6.95;68.38
71801;HTU21D;59647;55.838;37.292;2023-11-21T05:25:25;-7.00;68.79
71801;HTU21D;59647;55.838;37.292;2023-11-21T05:27:57;-7.03;69.00
71801;HTU21D;59647;55.838;37.292;2023-11-21T05:30:38;-7.12;68.87
71801;HTU21D;59647;55.838;37.292;2023-11-21T05:33:11;-7.08;68.93
71801;HTU21D;59647;55.838;37.292;2023-11-21T05:35:40;-7.04;69.20
71801;HTU21D;59647;55.838;37.292;2023-11-21T05:38:05;-7.05;68.91
71801;HTU21D;59647;55.838;37.292;2023-11-21T05:40:31;-7.10;68.72
71801;HTU21D;59647;55.838;37.292;2023-11-21T05:42:57;-7.07;70.55
71801;HTU21D;59647;55.838;37.292;2023-11-21T05:45:23;-6.95;69.23
71801;HTU21D;59647;55.838;37.292;2023-11-21T05:47:49;-6.93;68.14
71801;HTU21D;59647;55.838;37.292;2023-11-21T05:50:17;-7.02;68.68
71801;HTU21D;59647;55.838;37.292;2023-11-21T05:52:45;-7.02;68.26
71801;HTU21D;59647;55.838;37.292;2023-11-21T05:55:12;-7.04;68.51
71801;HTU21D;59647;55.838;37.292;2023-11-21T05:57:40;-7.08;69.11
71801;HTU21D;59647;55.838;37.292;2023-11-21T06:00:16;-6.95;69.07
71801;HTU21D;59647;55.838;37.292;2023-11-21T06:02:54;-6.96;68.85
71801;HTU21D;59647;55.838;37.292;2023-11-21T06:05:22;-7.01;68.51
71801;HTU21D;59647;55.838;37.292;2023-11-21T06:07:55;-7.03;68.94
71801;HTU21D;59647;55.838;37.292;2023-11-21T06:10:25;-7.00;70.01
71801;HTU21D;59647;55.838;37.292;2023-11-21T06:12:53;-6.97;68.65
71801;HTU21D;59647;55.838;37.292;2023-11-21T06:15:25;-6.97;70.04
71801;HTU21D;59647;55.838;37.292;2023-11-21T06:17:52;-6.85;69.68
71801;HTU21D;59647;55.838;37.292;2023-11-21T06:20:26;-6.77;69.82
71801;HTU21D;59647;55.838;37.292;2023-11-21T06:22:55;-6.72;69.33
71801;HTU21D;59647;55.838;37.292;2023-11-21T06:25:38;-6.56;69.56
71801;HTU21D;59647;55.838;37.292;2023-11-21T06:28:05;-6.68;67.71
71801;HTU21D;59647;55.838;37.292;2023-11-21T06:30:31;-6.58;69.26
71801;HTU21D;59647;55.838;37.292;2023-11-21T06:32:56;-6.55;68.30
71801;HTU21D;59647;55.838;37.292;2023-11-21T06:35:23;-6.45;67.56
71801;HTU21D;59647;55.838;37.292;2023-11-21T06:37:48;-6.53;67.27
71801;HTU21D;59647;55.838;37.292;2023-11-21T06:40:15;-6.63;67.17
71801;HTU21D;59647;55.838;37.292;2023-11-21T06:42:47;-6.70;67.57
71801;HTU21D;59647;55.838;37.292;2023-11-21T06:45:22;-6.77;67.55
71801;HTU21D;59647;55.838;37.292;2023-11-21T06:47:48;-6.72;68.30
71801;HTU21D;59647;55.838;37.292;2023-11-21T06:50:15;-6.70;68.31
71801;HTU21D;59647;55.838;37.292;2023-11-21T06:52:41;-6.59;68.61
71801;HTU21D;59647;55.838;37.292;2023-11-21T06:55:07;-6.66;67.55
71801;HTU21D;59647;55.838;37.292;2023-11-21T06:57:36;-6.68;67.75
71801;HTU21D;59647;55.838;37.292;2023-11-21T07:00:04;-6.71;67.91
71801;HTU21D;59647;55.838;37.292;2023-11-21T07:02:33;-6.76;68.00
71801;HTU21D;59647;55.838;37.292;2023-11-21T07:04:59;-6.66;70.03
71801;HTU21D;59647;55.838;37.292;2023-11-21T07:07:25;-6.46;69.90
71801;HTU21D;59647;55.838;37.292;2023-11-21T07:09:51;-6.32;69.87
71801;HTU21D;59647;55.838;37.292;2023-11-21T07:12:18;-6.26;68.62
71801;HTU21D;59647;55.838;37.292;2023-11-21T07:14:43;-6.16;69.23
71801;HTU21D;59647;55.838;37.292;2023-11-21T07:17:11;-6.05;69.07
71801;HTU21D;59647;55.838;37.292;2023-11-21T07:19:40;-6.06;68.10
71801;HTU21D;59647;55.838;37.292;2023-11-21T07:22:07;-6.09;67.72
71801;HTU21D;59647;55.838;37.292;2023-11-21T07:24:34;-6.06;68.23
71801;HTU21D;59647;55.838;37.292;2023-11-21T07:27:00;-5.97;68.78
71801;HTU21D;59647;55.838;37.292;2023-11-21T07:29:26;-5.94;68.05
71801;HTU21D;59647;55.838;37.292;2023-11-21T07:31:53;-5.86;69.33
71801;HTU21D;59647;55.838;37.292;2023-11-21T07:34:22;-5.82;68.30
71801;HTU21D;59647;55.838;37.292;2023-11-21T07:36:48;-5.81;68.87
71801;HTU21D;59647;55.838;37.292;2023-11-21T07:39:14;-5.70;68.70
71801;HTU21D;59647;55.838;37.292;2023-11-21T07:41:49;-5.77;67.49
71801;HTU21D;59647;55.838;37.292;2023-11-21T07:44:18;-5.98;67.47
71801;HTU21D;59647;55.838;37.292;2023-11-21T07:46:46;-6.16;67.27
71801;HTU21D;59647;55.838;37.292;2023-11-21T07:49:12;-6.29;67.57
71801;HTU21D;59647;55.838;37.292;2023-11-21T07:51:43;-6.32;68.39
71801;HTU21D;59647;55.838;37.292;2023-11-21T07:54:09;-6.19;68.84
71801;HTU21D;59647;55.838;37.292;2023-11-21T07:56:41;-6.18;68.72
71801;HTU21D;59647;55.838;37.292;2023-11-21T07:59:08;-6.24;69.65
71801;HTU21D;59647;55.838;37.292;2023-11-21T08:01:34;-6.13;71.32
71801;HTU21D;59647;55.838;37.292;2023-11-21T08:04:00;-5.91;70.37
71801;HTU21D;59647;55.838;37.292;2023-11-21T08:06:35;-5.92;68.02
71801;HTU21D;59647;55.838;37.292;2023-11-21T08:09:01;-6.07;68.28
71801;HTU21D;59647;55.838;37.292;2023-11-21T08:11:27;-6.01;69.94
71801;HTU21D;59647;55.838;37.292;2023-11-21T08:13:57;-5.89;69.51
71801;HTU21D;59647;55.838;37.292;2023-11-21T08:16:24;-5.89;69.16
71801;HTU21D;59647;55.838;37.292;2023-11-21T08:18:50;-5.81;71.65
71801;HTU21D;59647;55.838;37.292;2023-11-21T08:21:16;-5.62;70.71
71801;HTU21D;59647;55.838;37.292;2023-11-21T08:23:45;-5.59;69.56
71801;HTU21D;59647;55.838;37.292;2023-11-21T08:26:19;-5.48;68.85
71801;HTU21D;59647;55.838;37.292;2023-11-21T08:28:46;-5.59;69.49
71801;HTU21D;59647;55.838;37.292;2023-11-21T08:31:13;-5.52;70.14
71801;HTU21D;59647;55.838;37.292;2023-11-21T08:33:39;-5.35;70.52
71801;HTU21D;59647;55.838;37.292;2023-11-21T08:36:09;-5.27;69.91
71801;HTU21D;59647;55.838;37.292;2023-11-21T08:38:36;-5.13;68.87
71801;HTU21D;59647;55.838;37.292;2023-11-21T08:41:07;-5.18;68.22
71801;HTU21D;59647;55.838;37.292;2023-11-21T08:43:35;-5.10;69.28
71801;HTU21D;59647;55.838;37.292;2023-11-21T08:46:05;-4.97;67.04
71801;HTU21D;59647;55.838;37.292;2023-11-21T08:48:34;-4.87;68.33
71801;HTU21D;59647;55.838;37.292;2023-11-21T08:51:03;-5.14;67.01
71801;HTU21D;59647;55.838;37.292;2023-11-21T08:53:30;-5.10;68.25
71801;HTU21D;59647;55.838;37.292;2023-11-21T08:55:59;-5.13;68.82
71801;HTU21D;59647;55.838;37.292;2023-11-21T08:58:28;-5.02;68.43
71801;HTU21D;59647;55.838;37.292;2023-11-21T09:00:54;-5.08;66.07
71801;HTU21D;59647;55.838;37.292;2023-11-21T09:03:20;-5.15;68.86
71801;HTU21D;59647;55.838;37.292;2023-11-21T09:05:45;-4.97;68.59
71801;HTU21D;59647;55.838;37.292;2023-11-21T09:08:11;-4.82;69.00
71801;HTU21D;59647;55.838;37.292;2023-11-21T09:10:37;-4.68;68.03
71801;HTU21D;59647;55.838;37.292;2023-11-21T09:13:05;-4.90;66.29
71801;HTU21D;59647;55.838;37.292;2023-11-21T09:15:31;-5.10;66.51
71801;HTU21D;59647;55.838;37.292;2023-11-21T09:17:57;-5.22;66.51
71801;HTU21D;59647;55.838;37.292;2023-11-21T09:20:29;-5.18;66.85
71801;HTU21D;59647;55.838;37.292;2023-11-21T09:23:04;-5.18;66.04
71801;HTU21D;59647;55.838;37.292;2023-11-21T09:25:30;-5.38;64.93
71801;HTU21D;59647;55.838;37.292;2023-11-21T09:27:55;-5.28;66.69
71801;HTU21D;59647;55.838;37.292;2023-11-21T09:30:23;-5.25;66.81
71801;HTU21D;59647;55.838;37.292;2023-11-21T09:32:51;-5.34;63.08
71801;HTU21D;59647;55.838;37.292;2023-11-21T09:35:20;-5.35;65.84
71801;HTU21D;59647;55.838;37.292;2023-11-21T09:37:46;-5.37;64.53
71801;HTU21D;59647;55.838;37.292;2023-11-21T09:40:13;-5.35;65.42
71801;HTU21D;59647;55.838;37.292;2023-11-21T09:42:57;-5.44;64.34
71801;HTU21D;59647;55.838;37.292;2023-11-21T09:45:27;-5.27;66.56
71801;HTU21D;59647;55.838;37.292;2023-11-21T09:47:59;-5.30;65.98
71801;HTU21D;59647;55.838;37.292;2023-11-21T09:50:26;-5.38;64.83
71801;HTU21D;59647;55.838;37.292;2023-11-21T09:55:48;-5.38;65.36
71801;HTU21D;59647;55.838;37.292;2023-11-21T09:58:14;-5.46;64.47
71801;HTU21D;59647;55.838;37.292;2023-11-21T10:00:45;-5.55;64.98
71801;HTU21D;59647;55.838;37.292;2023-11-21T10:03:11;-5.62;64.17
71801;HTU21D;59647;55.838;37.292;2023-11-21T10:05:39;-5.53;65.75
71801;HTU21D;59647;55.838;37.292;2023-11-21T10:08:07;-5.65;63.97
71801;HTU21D;59647;55.838;37.292;2023-11-21T10:10:42;-5.55;66.11
71801;HTU21D;59647;55.838;37.292;2023-11-21T10:13:12;-5.46;64.64
71801;HTU21D;59647;55.838;37.292;2023-11-21T10:15:38;-5.55;64.87
71801;HTU21D;59647;55.838;37.292;2023-11-21T10:18:07;-5.60;63.40
71801;HTU21D;59647;55.838;37.292;2023-11-21T10:20:33;-5.57;64.55
71801;HTU21D;59647;55.838;37.292;2023-11-21T10:23:00;-5.46;66.18
71801;HTU21D;59647;55.838;37.292;2023-11-21T10:25:30;-5.52;65.32
71801;HTU21D;59647;55.838;37.292;2023-11-21T10:28:01;-5.59;64.93
71801;HTU21D;59647;55.838;37.292;2023-11-21T10:30:39;-5.70;64.20
71801;HTU21D;59647;55.838;37.292;2023-11-21T10:33:07;-5.69;65.05
71801;HTU21D;59647;55.838;37.292;2023-11-21T10:35:46;-5.53;66.72
71801;HTU21D;59647;55.838;37.292;2023-11-21T10:38:21;-5.55;63.92
71801;HTU21D;59647;55.838;37.292;2023-11-21T10:40:50;-5.55;65.17
71801;HTU21D;59647;55.838;37.292;2023-11-21T10:43:17;-5.58;65.72
71801;HTU21D;59647;55.838;37.292;2023-11-21T10:45:44;-5.73;65.82
71801;HTU21D;59647;55.838;37.292;2023-11-21T10:48:13;-5.54;67.84
71801;HTU21D;59647;55.838;37.292;2023-11-21T10:50:44;-5.42;67.54
71801;HTU21D;59647;55.838;37.292;2023-11-21T10:53:10;-5.26;66.60
71801;HTU21D;59647;55.838;37.292;2023-11-21T10:55:39;-5.43;64.20
71801;HTU21D;59647;55.838;37.292;2023-11-21T10:58:05;-5.59;64.82
71801;HTU21D;59647;55.838;37.292;2023-11-21T11:00:33;-5.44;65.14
71801;HTU21D;59647;55.838;37.292;2023-11-21T11:03:00;-5.44;64.43
71801;HTU21D;59647;55.838;37.292;2023-11-21T11:05:27;-5.31;65.06
71801;HTU21D;59647;55.838;37.292;2023-11-21T11:08:00;-5.37;63.84
71801;HTU21D;59647;55.838;37.292;2023-11-21T11:10:28;-5.45;63.41
71801;HTU21D;59647;55.838;37.292;2023-11-21T11:12:58;-5.44;66.53
71801;HTU21D;59647;55.838;37.292;2023-11-21T11:15:25;-5.31;65.37
71801;HTU21D;59647;55.838;37.292;2023-11-21T11:17:52;-5.37;64.32
71801;HTU21D;59647;55.838;37.292;2023-11-21T11:20:18;-5.44;65.46
71801;HTU21D;59647;55.838;37.292;2023-11-21T11:23:04;-5.32;65.39
71801;HTU21D;59647;55.838;37.292;2023-11-21T11:28:13;-5.40;66.14
71801;HTU21D;59647;55.838;37.292;2023-11-21T11:34:01;-5.22;66.90
71801;HTU21D;59647;55.838;37.292;2023-11-21T11:37:09;-5.16;65.08
71801;HTU21D;59647;55.838;37.292;2023-11-21T11:39:39;-5.23;64.22
71801;HTU21D;59647;55.838;37.292;2023-11-21T11:42:15;-5.22;65.46
71801;HTU21D;59647;55.838;37.292;2023-11-21T11:47:28;-5.24;65.39
71801;HTU21D;59647;55.838;37.292;2023-11-21T11:50:09;-5.16;66.89
71801;HTU21D;59647;55.838;37.292;2023-11-21T11:52:50;-5.12;64.43
71801;HTU21D;59647;55.838;37.292;2023-11-21T11:55:19;-5.08;65.43
71801;HTU21D;59647;55.838;37.292;2023-11-21T11:57:52;-5.02;65.30
71801;HTU21D;59647;55.838;37.292;2023-11-21T12:02:56;-5.07;64.33
71801;HTU21D;59647;55.838;37.292;2023-11-21T12:05:23;-5.08;62.98
71801;HTU21D;59647;55.838;37.292;2023-11-21T12:07:53;-5.10;64.21
71801;HTU21D;59647;55.838;37.292;2023-11-21T12:10:22;-5.05;65.01
71801;HTU21D;59647;55.838;37.292;2023-11-21T12:12:52;-5.00;64.65
71801;HTU21D;59647;55.838;37.292;2023-11-21T12:15:19;-4.98;64.18
71801;HTU21D;59647;55.838;37.292;2023-11-21T12:17:48;-4.96;64.04
71801;HTU21D;59647;55.838;37.292;2023-11-21T12:20:18;-5.02;62.76
71801;HTU21D;59647;55.838;37.292;2023-11-21T12:22:46;-5.05;63.08
71801;HTU21D;59647;55.838;37.292;2023-11-21T12:25:16;-5.02;63.53
71801;HTU21D;59647;55.838;37.292;2023-11-21T12:27:54;-5.08;62.24
71801;HTU21D;59647;55.838;37.292;2023-11-21T12:30:21;-5.11;63.71
71801;HTU21D;59647;55.838;37.292;2023-11-21T12:32:49;-5.12;63.24
71801;HTU21D;59647;55.838;37.292;2023-11-21T12:35:18;-5.08;64.45
71801;HTU21D;59647;55.838;37.292;2023-11-21T12:37:45;-5.19;62.65
71801;HTU21D;59647;55.838;37.292;2023-11-21T12:40:15;-5.26;63.47
71801;HTU21D;59647;55.838;37.292;2023-11-21T12:42:42;-5.19;64.11
71801;HTU21D;59647;55.838;37.292;2023-11-21T12:47:44;-5.18;64.22
71801;HTU21D;59647;55.838;37.292;2023-11-21T12:50:13;-5.13;64.00
71801;HTU21D;59647;55.838;37.292;2023-11-21T12:52:44;-5.14;65.07
71801;HTU21D;59647;55.838;37.292;2023-11-21T12:55:20;-5.29;63.64
71801;HTU21D;59647;55.838;37.292;2023-11-21T12:57:50;-5.42;62.59
71801;HTU21D;59647;55.838;37.292;2023-11-21T13:03:08;-5.39;65.37
71801;HTU21D;59647;55.838;37.292;2023-11-21T13:05:39;-5.35;64.84
71801;HTU21D;59647;55.838;37.292;2023-11-21T13:08:09;-5.28;64.11
71801;HTU21D;59647;55.838;37.292;2023-11-21T13:10:39;-5.32;61.83
71801;HTU21D;59647;55.838;37.292;2023-11-21T13:13:07;-5.29;64.11
71801;HTU21D;59647;55.838;37.292;2023-11-21T13:15:38;-5.33;64.42
71801;HTU21D;59647;55.838;37.292;2023-11-21T13:18:04;-5.46;64.35
71801;HTU21D;59647;55.838;37.292;2023-11-21T13:20:30;-5.44;66.47
71801;HTU21D;59647;55.838;37.292;2023-11-21T13:22:58;-5.40;65.84
71801;HTU21D;59647;55.838;37.292;2023-11-21T13:25:30;-5.38;65.07
71801;HTU21D;59647;55.838;37.292;2023-11-21T13:27:58;-5.32;64.78
71801;HTU21D;59647;55.838;37.292;2023-11-21T13:30:25;-5.39;63.43
71801;HTU21D;59647;55.838;37.292;2023-11-21T13:33:03;-5.30;65.31
71801;HTU21D;59647;55.838;37.292;2023-11-21T13:35:36;-5.39;63.81
71801;HTU21D;59647;55.838;37.292;2023-11-21T13:38:11;-5.35;64.11
71801;HTU21D;59647;55.838;37.292;2023-11-21T13:40:39;-5.46;63.65
71801;HTU21D;59647;55.838;37.292;2023-11-21T13:43:22;-5.49;63.57
71801;HTU21D;59647;55.838;37.292;2023-11-21T13:45:52;-5.42;64.29
71801;HTU21D;59647;55.838;37.292;2023-11-21T13:48:27;-5.39;62.91
71801;HTU21D;59647;55.838;37.292;2023-11-21T13:51:06;-5.44;62.64
71801;HTU21D;59647;55.838;37.292;2023-11-21T13:53:44;-5.49;63.28
71801;HTU21D;59647;55.838;37.292;2023-11-21T13:56:14;-5.50;67.55
71801;HTU21D;59647;55.838;37.292;2023-11-21T13:58:45;-5.48;66.57
71801;HTU21D;59647;55.838;37.292;2023-11-21T14:01:19;-5.42;66.56
71801;HTU21D;59647;55.838;37.292;2023-11-21T14:04:00;-5.37;67.10
71801;HTU21D;59647;55.838;37.292;2023-11-21T14:06:47;-5.35;66.69
71801;HTU21D;59647;55.838;37.292;2023-11-21T14:09:18;-5.37;63.03
71801;HTU21D;59647;55.838;37.292;2023-11-21T14:11:56;-5.43;63.75
71801;HTU21D;59647;55.838;37.292;2023-11-21T14:14:27;-5.55;64.06
71801;HTU21D;59647;55.838;37.292;2023-11-21T14:16:54;-5.62;63.22
71801;HTU21D;59647;55.838;37.292;2023-11-21T14:19:21;-5.63;64.00
71801;HTU21D;59647;55.838;37.292;2023-11-21T14:21:52;-5.65;64.94
71801;HTU21D;59647;55.838;37.292;2023-11-21T14:24:19;-5.63;64.76
71801;HTU21D;59647;55.838;37.292;2023-11-21T14:26:46;-5.50;64.93
71801;HTU21D;59647;55.838;37.292;2023-11-21T14:29:17;-5.42;64.97
71801;HTU21D;59647;55.838;37.292;2023-11-21T14:31:47;-5.40;64.07
71801;HTU21D;59647;55.838;37.292;2023-11-21T14:34:15;-5.37;64.37
71801;HTU21D;59647;55.838;37.292;2023-11-21T14:36:42;-5.43;64.18
71801;HTU21D;59647;55.838;37.292;2023-11-21T14:39:09;-5.46;63.27
71801;HTU21D;59647;55.838;37.292;2023-11-21T14:41:46;-5.52;64.18
71801;HTU21D;59647;55.838;37.292;2023-11-21T14:44:12;-5.61;63.70
71801;HTU21D;59647;55.838;37.292;2023-11-21T14:46:39;-5.59;63.74
71801;HTU21D;59647;55.838;37.292;2023-11-21T14:49:10;-5.71;62.66
71801;HTU21D;59647;55.838;37.292;2023-11-21T14:51:50;-5.64;63.71
71801;HTU21D;59647;55.838;37.292;2023-11-21T14:54:19;-5.57;64.09
71801;HTU21D;59647;55.838;37.292;2023-11-21T14:57:00;-5.53;63.87
71801;HTU21D;59647;55.838;37.292;2023-11-21T14:59:26;-5.56;62.53
71801;HTU21D;59647;55.838;37.292;2023-11-21T15:01:52;-5.61;63.46
71801;HTU21D;59647;55.838;37.292;2023-11-21T15:04:22;-5.54;64.62
71801;HTU21D;59647;55.838;37.292;2023-11-21T15:07:05;-5.49;64.24
71801;HTU21D;59647;55.838;37.292;2023-11-21T15:09:32;-5.45;65.00
71801;HTU21D;59647;55.838;37.292;2023-11-21T15:12:02;-5.35;65.59
71801;HTU21D;59647;55.838;37.292;2023-11-21T15:14:50;-5.31;64.72
71801;HTU21D;59647;55.838;37.292;2023-11-21T15:17:20;-5.37;63.73
71801;HTU21D;59647;55.838;37.292;2023-11-21T15:19:53;-5.32;64.80
71801;HTU21D;59647;55.838;37.292;2023-11-21T15:22:20;-5.31;64.37
71801;HTU21D;59647;55.838;37.292;2023-11-21T15:24:46;-5.30;65.27
71801;HTU21D;59647;55.838;37.292;2023-11-21T15:27:14;-5.38;63.86
71801;HTU21D;59647;55.838;37.292;2023-11-21T15:29:40;-5.34;65.48
71801;HTU21D;59647;55.838;37.292;2023-11-21T15:32:07;-5.44;65.14
71801;HTU21D;59647;55.838;37.292;2023-11-21T15:34:34;-5.40;65.35